Time;durP1;ratioP1;P1;durP2;ratioP2;P2;SDS_P1;SDS_P2;PMS_P1;PMS_P2;Temp;Humidity;BMP_temperature;BMP_pressure;BME280_temperature;BME280_humidity;BME280_pressure;Samples;Min_cycle;Max_cycle;Signal;HPM_P1;HPM_P2
2021/12/09 00:01:38;;;;;;;;;1.00;1.00;;;;;5.45;68.55;100237.38;5008663;28;45613;-67
2021/12/09 00:04:06;;;;;;;;;1.75;1.75;;;;;5.43;67.85;100239.22;5000553;28;45392;-66
2021/12/09 00:06:34;;;;;;;;;1.00;1.00;;;;;5.41;67.81;100235.84;5015656;28;45568;-67
2021/12/09 00:09:04;;;;;;;;;1.00;1.00;;;;;5.40;67.92;100249.81;5026699;28;45755;-66
2021/12/09 00:11:30;;;;;;;;;1.00;1.00;;;;;5.39;67.77;100250.75;5027739;28;45453;-66
2021/12/09 00:13:56;;;;;;;;;1.00;1.00;;;;;5.40;68.17;100239.38;5027940;28;45672;-66
2021/12/09 00:16:22;;;;;;;;;5.50;0.00;;;;;5.40;68.41;100245.44;5029911;28;45455;-66
2021/12/09 00:18:48;;;;;;;;;0.50;0.50;;;;;5.40;68.41;100241.97;5028961;28;45729;-66
2021/12/09 00:21:14;;;;;;;;;1.00;1.00;;;;;5.40;68.43;100242.81;5028814;28;45332;-67
2021/12/09 00:23:39;;;;;;;;;0.50;0.50;;;;;5.40;68.69;100239.38;5030270;28;45541;-66
2021/12/09 00:26:05;;;;;;;;;2.00;1.00;;;;;5.40;68.19;100244.59;5031659;28;45889;-66
2021/12/09 00:28:31;;;;;;;;;1.00;1.00;;;;;5.38;67.87;100238.59;5031274;28;45839;-66
2021/12/09 00:30:57;;;;;;;;;0.25;0.25;;;;;5.38;68.39;100239.44;5030787;28;45503;-65
2021/12/09 00:33:22;;;;;;;;;3.25;1.00;;;;;5.38;69.07;100238.59;5030617;28;45515;-66
2021/12/09 00:35:55;;;;;;;;;1.50;0.00;;;;;5.37;68.43;100234.28;5029500;28;45586;-66
2021/12/09 00:38:32;;;;;;;;;2.75;0.75;;;;;5.34;68.32;100235.28;5029480;28;45498;-67
2021/12/09 00:40:58;;;;;;;;;1.50;0.25;;;;;5.36;68.41;100243.03;5028805;28;45596;-66
2021/12/09 00:43:23;;;;;;;;;1.50;1.50;;;;;5.35;69.03;100242.19;5030419;28;45507;-66
2021/12/09 00:45:49;;;;;;;;;2.00;1.00;;;;;5.36;69.14;100245.63;5030796;28;45454;-66
2021/12/09 00:48:15;;;;;;;;;1.00;1.00;;;;;5.37;68.42;100253.41;5028877;28;45430;-65
2021/12/09 00:50:40;;;;;;;;;1.00;1.00;;;;;5.40;69.25;100247.22;5028985;28;45407;-66
2021/12/09 00:53:06;;;;;;;;;2.00;1.00;;;;;5.41;68.05;100256.72;5030145;28;45686;-66
2021/12/09 00:55:32;;;;;;;;;0.00;0.00;;;;;5.42;68.72;100256.66;5030976;28;45463;-66
2021/12/09 00:57:57;;;;;;;;;1.00;1.00;;;;;5.44;68.27;100261.81;5028140;28;45588;-66
2021/12/09 01:00:23;;;;;;;;;2.00;0.00;;;;;5.44;68.87;100256.56;5029258;28;45374;-66
2021/12/09 01:02:48;;;;;;;;;3.75;0.75;;;;;5.47;68.63;100249.47;5031470;28;45397;-65
2021/12/09 01:05:15;;;;;;;;;1.25;1.00;;;;;5.48;68.56;100256.38;5031251;28;45383;-66
2021/12/09 01:07:41;;;;;;;;;3.50;1.00;;;;;5.49;68.62;100250.25;5029292;28;46173;-66
2021/12/09 01:10:10;;;;;;;;;2.00;1.00;;;;;5.51;68.64;100255.38;5028994;28;45427;-65
2021/12/09 01:12:36;;;;;;;;;1.00;1.00;;;;;5.52;68.91;100254.47;5029368;28;45359;-67
2021/12/09 01:15:04;;;;;;;;;1.50;1.00;;;;;5.54;68.10;100252.66;5031554;28;45418;-66
2021/12/09 01:17:29;;;;;;;;;1.00;1.00;;;;;5.54;67.74;100245.66;5029332;28;46233;-66
2021/12/09 01:19:55;;;;;;;;;1.25;1.00;;;;;5.55;67.97;100257.78;5030050;28;46441;-66
2021/12/09 01:22:26;;;;;;;;;1.00;1.00;;;;;5.56;68.02;100266.47;5028116;28;45823;-65
2021/12/09 01:24:52;;;;;;;;;0.25;0.25;;;;;5.57;67.72;100263.78;5026569;28;45383;-65
2021/12/09 01:27:18;;;;;;;;;0.50;0.50;;;;;5.57;68.37;100271.63;5030278;28;45399;-65
2021/12/09 01:29:51;;;;;;;;;4.00;1.00;;;;;5.60;68.07;100278.47;5030585;28;45406;-66
2021/12/09 01:32:24;;;;;;;;;0.75;0.50;;;;;5.60;67.97;100275.84;5029019;28;45437;-66
2021/12/09 01:34:49;;;;;;;;;1.00;1.00;;;;;5.60;67.73;100274.09;5028956;28;45554;-66
2021/12/09 01:37:15;;;;;;;;;1.50;0.25;;;;;5.62;67.79;100274.03;5027130;28;45512;-65
2021/12/09 01:39:40;;;;;;;;;3.75;1.00;;;;;5.65;67.59;100271.28;5045001;28;45428;-65
2021/12/09 01:42:06;;;;;;;;;1.25;1.00;;;;;5.68;68.37;100272.88;5032340;28;45540;-65
2021/12/09 01:44:32;;;;;;;;;2.00;0.00;;;;;5.71;68.13;100275.38;5029845;28;45419;-65
2021/12/09 01:46:57;;;;;;;;;1.00;1.00;;;;;5.71;67.46;100281.44;5028547;28;45355;-67
2021/12/09 01:49:23;;;;;;;;;4.25;0.50;;;;;5.75;68.54;100289.97;5028863;28;45419;-66
2021/12/09 01:51:49;;;;;;;;;0.00;0.00;;;;;5.76;67.49;100289.06;5028316;28;45383;-65
2021/12/09 01:54:15;;;;;;;;;0.75;0.75;;;;;5.77;67.27;100293.41;5030306;28;45424;-66
2021/12/09 01:56:41;;;;;;;;;1.00;1.00;;;;;5.76;67.88;100291.66;5027835;28;45442;-65
2021/12/09 01:59:07;;;;;;;;;1.75;0.00;;;;;5.75;67.64;100289.97;5029288;28;45524;-66
2021/12/09 02:01:34;;;;;;;;;1.00;0.25;;;;;5.77;66.96;100288.16;5026449;28;45431;-66
2021/12/09 02:04:02;;;;;;;;;1.00;0.00;;;;;5.78;67.71;100293.31;5029033;28;45494;-66
2021/12/09 02:06:29;;;;;;;;;1.50;1.00;;;;;5.79;68.09;100295.00;5031451;28;45465;-66
2021/12/09 02:08:55;;;;;;;;;2.00;0.00;;;;;5.81;67.34;100293.16;5029042;28;45420;-66
2021/12/09 02:11:21;;;;;;;;;1.00;0.00;;;;;5.81;67.45;100301.00;5028070;28;45459;-66
2021/12/09 02:13:50;;;;;;;;;0.00;0.00;;;;;5.82;67.64;100289.63;5029536;28;45734;-65
2021/12/09 02:16:17;;;;;;;;;1.25;0.50;;;;;5.86;67.08;100292.97;5027590;28;46150;-65
2021/12/09 02:18:43;;;;;;;;;0.00;0.00;;;;;5.87;67.90;100298.09;5029523;28;45389;-65
2021/12/09 02:21:13;;;;;;;;;2.00;1.00;;;;;5.88;67.54;100288.50;5030611;28;45417;-65
2021/12/09 02:23:46;;;;;;;;;1.00;0.00;;;;;5.89;66.92;100288.41;5028580;28;45700;-65
2021/12/09 02:26:13;;;;;;;;;2.50;1.00;;;;;5.93;68.00;100297.00;5026676;28;46636;-65
2021/12/09 02:28:40;;;;;;;;;1.75;0.00;;;;;5.95;67.24;100289.09;5028886;28;45530;-66
2021/12/09 02:31:05;;;;;;;;;2.00;0.00;;;;;5.96;66.86;100291.63;5029340;28;45562;-65
2021/12/09 02:33:32;;;;;;;;;0.75;0.00;;;;;6.01;66.90;100288.81;5029222;28;45561;-67
2021/12/09 02:35:58;;;;;;;;;0.00;0.00;;;;;6.02;67.25;100291.34;5027009;28;45751;-66
2021/12/09 02:38:23;;;;;;;;;4.25;0.00;;;;;6.04;67.06;100288.66;5026748;28;45387;-66
2021/12/09 02:40:50;;;;;;;;;0.75;0.00;;;;;6.08;67.10;100290.19;5028709;28;45605;-66
2021/12/09 02:43:22;;;;;;;;;2.00;1.00;;;;;6.10;67.37;100289.22;5027005;28;45327;-66
2021/12/09 02:45:52;;;;;;;;;2.00;0.00;;;;;6.15;67.16;100297.66;5027393;28;45333;-66
2021/12/09 02:48:18;;;;;;;;;0.00;0.00;;;;;6.15;67.00;100281.97;5027644;28;45612;-66
2021/12/09 02:50:44;;;;;;;;;0.00;0.00;;;;;6.17;67.06;100296.78;5028277;28;45532;-66
2021/12/09 02:53:09;;;;;;;;;2.25;0.00;;;;;6.19;67.52;100297.53;5028067;28;45523;-66
2021/12/09 02:55:35;;;;;;;;;1.50;0.75;;;;;6.20;66.82;100288.75;5026332;28;46149;-66
2021/12/09 02:58:02;;;;;;;;;1.25;0.00;;;;;6.22;67.02;100300.84;5025475;28;45499;-65
2021/12/09 03:00:29;;;;;;;;;2.00;0.00;;;;;6.24;66.50;100303.38;5027204;28;45515;-65
2021/12/09 03:02:57;;;;;;;;;1.00;0.00;;;;;6.26;66.29;100309.41;5027209;28;45629;-66
2021/12/09 03:05:24;;;;;;;;;0.00;0.00;;;;;6.28;66.66;100307.53;5029137;28;45435;-65
2021/12/09 03:07:49;;;;;;;;;7.75;2.00;;;;;6.28;66.24;100310.16;5026857;28;45571;-66
2021/12/09 03:10:24;;;;;;;;;2.00;0.50;;;;;6.27;66.80;100313.69;5027970;28;45691;-66
2021/12/09 03:12:54;;;;;;;;;0.00;0.00;;;;;6.28;67.05;100308.41;5027129;28;45590;-65
2021/12/09 03:15:20;;;;;;;;;1.25;0.50;;;;;6.30;66.64;100316.16;5028715;28;46281;-65
2021/12/09 03:17:47;;;;;;;;;0.00;0.00;;;;;6.29;66.80;100312.69;5029815;28;45478;-66
2021/12/09 03:20:15;;;;;;;;;1.25;0.00;;;;;6.31;66.72;100310.00;5028006;28;45474;-65
2021/12/09 03:22:41;;;;;;;;;0.00;0.00;;;;;6.31;67.12;100307.38;5027032;28;45447;-65
2021/12/09 03:25:12;;;;;;;;;1.75;0.75;;;;;6.34;66.76;100300.25;5027621;28;46113;-65
2021/12/09 03:27:38;;;;;;;;;0.25;0.00;;;;;6.36;66.86;100316.72;5023952;28;45408;-65
2021/12/09 03:30:07;;;;;;;;;1.00;0.00;;;;;6.39;67.21;100306.09;5028727;28;45443;-65
2021/12/09 03:32:33;;;;;;;;;3.25;0.00;;;;;6.42;66.68;100302.50;5029283;28;45687;-66
2021/12/09 03:34:59;;;;;;;;;0.00;0.00;;;;;6.43;66.35;100309.41;5027079;28;45600;-66
2021/12/09 03:37:27;;;;;;;;;1.25;0.00;;;;;6.45;66.34;100302.34;5026430;28;45435;-66
2021/12/09 03:39:54;;;;;;;;;1.50;0.00;;;;;6.47;66.63;100312.72;5028950;28;45447;-65
2021/12/09 03:42:24;;;;;;;;;0.00;0.00;;;;;6.47;65.81;100317.94;5028915;28;45450;-66
2021/12/09 03:44:50;;;;;;;;;0.00;0.00;;;;;6.48;66.26;100322.25;5027499;28;46378;-65
2021/12/09 03:47:19;;;;;;;;;1.25;0.50;;;;;6.49;65.87;100319.59;5027399;28;45708;-65
2021/12/09 03:49:44;;;;;;;;;1.50;0.00;;;;;6.48;66.40;100320.50;5026331;28;46636;-65
2021/12/09 03:52:11;;;;;;;;;3.00;0.00;;;;;6.50;65.79;100318.66;5030784;28;45483;-65
2021/12/09 03:54:37;;;;;;;;;2.25;1.00;;;;;6.49;66.29;100319.59;5032028;28;45481;-65
2021/12/09 03:57:04;;;;;;;;;1.00;0.00;;;;;6.47;65.62;100326.66;5028355;28;45579;-65
2021/12/09 03:59:29;;;;;;;;;1.00;0.00;;;;;6.48;66.17;100333.59;5030891;28;45762;-66
2021/12/09 04:01:55;;;;;;;;;0.00;0.00;;;;;6.48;66.56;100332.72;5029504;28;45411;-65
2021/12/09 04:04:21;;;;;;;;;2.00;1.00;;;;;6.48;65.62;100340.56;5031050;28;45760;-67
2021/12/09 04:06:47;;;;;;;;;2.75;0.75;;;;;6.47;65.72;100341.50;5032268;28;45472;-65
2021/12/09 04:09:16;;;;;;;;;1.00;0.00;;;;;6.45;66.60;100341.56;5031433;28;45435;-65
2021/12/09 04:11:42;;;;;;;;;1.25;0.00;;;;;6.48;66.00;100340.56;5030722;28;45570;-65
2021/12/09 04:14:08;;;;;;;;;0.00;0.00;;;;;6.49;66.40;100334.44;5029381;28;46308;-65
2021/12/09 04:16:35;;;;;;;;;0.00;0.00;;;;;6.50;66.58;100341.38;5028991;28;45727;-66
2021/12/09 04:19:02;;;;;;;;;0.00;0.00;;;;;6.50;66.13;100341.38;5031847;28;45840;-65
2021/12/09 04:21:28;;;;;;;;;1.00;0.00;;;;;6.52;66.25;100337.75;5030485;28;45463;-65
2021/12/09 04:23:54;;;;;;;;;0.00;0.00;;;;;6.53;66.25;100341.22;5029606;28;46169;-65
2021/12/09 04:26:19;;;;;;;;;0.00;0.00;;;;;6.53;65.90;100344.66;5030040;28;46800;-66
2021/12/09 04:28:45;;;;;;;;;0.00;0.00;;;;;6.52;65.72;100353.44;5030667;28;45726;-65
2021/12/09 04:31:11;;;;;;;;;0.00;0.00;;;;;6.51;65.76;100350.91;5031026;28;45924;-65
2021/12/09 04:33:36;;;;;;;;;1.00;0.25;;;;;6.51;66.12;100345.69;5031390;28;46458;-66
2021/12/09 04:36:03;;;;;;;;;1.00;1.00;;;;;6.54;66.25;100345.50;5029935;28;45465;-65
2021/12/09 04:38:29;;;;;;;;;2.75;0.00;;;;;6.51;65.74;100343.91;5029938;28;45491;-65
2021/12/09 04:40:55;;;;;;;;;1.50;0.75;;;;;6.54;65.74;100350.75;5031267;28;45515;-66
2021/12/09 04:43:20;;;;;;;;;0.25;0.00;;;;;6.55;65.79;100345.44;5030442;28;45917;-65
2021/12/09 04:45:47;;;;;;;;;1.25;0.00;;;;;6.57;66.26;100350.63;5029345;28;45758;-65
2021/12/09 04:48:12;;;;;;;;;1.00;0.00;;;;;6.57;65.71;100348.84;5030430;28;45453;-65
2021/12/09 04:50:39;;;;;;;;;1.75;0.50;;;;;6.58;66.01;100352.31;5031766;28;45473;-65
2021/12/09 04:53:06;;;;;;;;;1.00;1.00;;;;;6.58;65.75;100347.91;5030369;28;45507;-66
2021/12/09 04:55:33;;;;;;;;;0.00;0.00;;;;;6.59;65.70;100351.38;5029767;28;45485;-65
2021/12/09 04:57:59;;;;;;;;;0.75;0.00;;;;;6.59;65.97;100354.84;5029512;28;45345;-65
2021/12/09 05:00:29;;;;;;;;;2.00;0.00;;;;;6.59;66.17;100333.91;5030707;28;45411;-66
2021/12/09 05:03:03;;;;;;;;;1.00;0.00;;;;;6.60;65.71;100342.59;5030046;28;45518;-65
2021/12/09 05:05:47;;;;;;;;;0.00;0.00;;;;;6.63;66.08;100345.91;5030826;28;45474;-67
2021/12/09 05:08:14;;;;;;;;;1.00;0.00;;;;;6.66;65.45;100347.53;5029740;28;45462;-67
2021/12/09 05:13:26;;;;;;;;;2.25;0.00;;;;;6.63;65.50;100348.53;5029577;28;45473;-65
2021/12/09 05:15:53;;;;;;;;;0.50;0.25;;;;;6.63;65.62;100340.66;5029320;28;45444;-65
2021/12/09 05:18:19;;;;;;;;;1.50;0.00;;;;;6.65;66.07;100345.84;5030440;28;45490;-65
2021/12/09 05:20:46;;;;;;;;;0.50;0.50;;;;;6.65;65.87;100344.06;5028823;28;45716;-65
2021/12/09 05:23:13;;;;;;;;;2.50;2.00;;;;;6.65;65.24;100348.47;5028672;28;45605;-66
2021/12/09 05:25:38;;;;;;;;;2.00;1.00;;;;;6.67;65.46;100360.53;5024994;28;45720;-65
2021/12/09 05:28:04;;;;;;;;;5.25;1.00;;;;;6.68;65.56;100351.78;5029474;28;45394;-66
2021/12/09 05:32:07;;;;;;;;;1.75;1.00;;;;;6.69;66.00;100353.47;5031162;28;45506;-65
2021/12/09 05:33:15;;;;;;;;;1.50;0.00;;;;;6.68;65.54;100343.91;5029547;28;46001;-66
2021/12/09 05:35:40;;;;;;;;;0.25;0.25;;;;;6.67;65.37;100344.00;5025562;28;45665;-68
2021/12/09 05:38:06;;;;;;;;;0.50;0.00;;;;;6.66;65.73;100351.00;5030356;28;45535;-67
2021/12/09 05:40:31;;;;;;;;;6.75;2.25;;;;;6.67;65.79;100354.47;5026321;28;45294;-67
2021/12/09 05:42:57;;;;;;;;;3.00;1.00;;;;;6.68;66.26;100348.31;5028694;28;45925;-67
2021/12/09 05:45:22;;;;;;;;;1.75;0.25;;;;;6.69;65.60;100368.31;5030264;28;45470;-66
2021/12/09 05:47:49;;;;;;;;;1.00;0.50;;;;;6.66;65.93;100366.72;5029894;28;45488;-66
2021/12/09 05:50:14;;;;;;;;;1.00;0.00;;;;;6.67;65.51;100367.56;5029671;28;45312;-66
2021/12/09 05:52:40;;;;;;;;;2.50;1.00;;;;;6.70;66.15;100375.25;5028788;28;46302;-66
2021/12/09 05:55:06;;;;;;;;;1.00;1.00;;;;;6.70;65.66;100368.25;5026696;28;45574;-67
2021/12/09 05:57:31;;;;;;;;;2.25;1.00;;;;;6.71;65.60;100366.47;5029230;28;45694;-66
2021/12/09 05:59:57;;;;;;;;;1.50;1.00;;;;;6.72;65.87;100373.41;5031993;28;45608;-66
2021/12/09 06:02:22;;;;;;;;;1.25;1.00;;;;;6.71;65.52;100372.56;5028901;28;45576;-66
2021/12/09 06:04:48;;;;;;;;;1.00;1.00;;;;;6.71;66.17;100383.03;5028478;28;45516;-66
2021/12/09 06:07:14;;;;;;;;;2.75;1.00;;;;;6.69;65.35;100371.78;5029095;28;45899;-66
2021/12/09 06:09:40;;;;;;;;;2.00;1.00;;;;;6.69;65.46;100374.41;5028316;28;45492;-67
2021/12/09 06:12:06;;;;;;;;;3.00;0.00;;;;;6.69;65.31;100374.41;5030070;28;46223;-66
2021/12/09 06:14:33;;;;;;;;;1.00;0.75;;;;;6.69;65.95;100386.63;5029385;28;45425;-67
2021/12/09 06:16:58;;;;;;;;;7.25;5.00;;;;;6.67;65.91;100383.25;5029034;28;45383;-65
2021/12/09 06:19:24;;;;;;;;;2.75;1.00;;;;;6.69;65.62;100390.09;5026544;28;45446;-65
2021/12/09 06:21:50;;;;;;;;;5.25;2.50;;;;;6.68;65.24;100387.56;5028779;28;45552;-65
2021/12/09 06:24:18;;;;;;;;;1.00;1.00;;;;;6.65;65.60;100392.97;5030913;28;45466;-66
2021/12/09 06:26:44;;;;;;;;;2.00;1.00;;;;;6.65;66.00;100390.34;5028667;28;45435;-66
2021/12/09 06:29:09;;;;;;;;;1.00;1.00;;;;;6.61;65.58;100392.25;5027275;28;45432;-66
2021/12/09 06:31:35;;;;;;;;;1.50;0.00;;;;;6.62;65.94;100396.56;5026100;28;46353;-66
2021/12/09 06:34:01;;;;;;;;;4.00;3.00;;;;;6.62;65.79;100395.72;5025670;28;45469;-67
2021/12/09 06:36:26;;;;;;;;;1.00;1.00;;;;;6.59;65.44;100391.47;5011045;28;45393;-65
2021/12/09 06:38:52;;;;;;;;;6.00;1.75;;;;;6.60;65.92;100394.94;5021313;28;45459;-66
2021/12/09 06:41:17;;;;;;;;;1.25;1.25;;;;;6.57;65.77;100395.09;5021135;28;45756;-63
2021/12/09 06:43:43;;;;;;;;;1.00;1.00;;;;;6.56;65.88;100401.25;5021268;28;45313;-63
2021/12/09 06:46:10;;;;;;;;;3.00;1.00;;;;;6.55;66.02;100417.84;5021382;28;45245;-62
2021/12/09 06:48:37;;;;;;;;;5.00;1.50;;;;;6.51;65.47;100411.94;5021153;28;45474;-69
2021/12/09 06:51:05;;;;;;;;;1.25;1.00;;;;;6.47;66.28;100412.13;5022336;28;45531;-69
2021/12/09 06:53:32;;;;;;;;;2.75;1.00;;;;;6.47;66.21;100414.75;5022878;28;45324;-71
2021/12/09 06:55:58;;;;;;;;;4.50;2.00;;;;;6.43;66.42;100406.22;5020928;28;45271;-69
2021/12/09 06:58:24;;;;;;;;;2.00;1.00;;;;;6.41;66.14;100413.31;5020688;28;45479;-72
2021/12/09 07:00:52;;;;;;;;;4.00;3.25;;;;;6.40;65.62;100422.06;5021011;28;45331;-70
2021/12/09 07:03:21;;;;;;;;;3.50;1.25;;;;;6.39;66.09;100430.81;5020558;28;45312;-71
2021/12/09 07:05:47;;;;;;;;;1.50;1.50;;;;;6.42;66.03;100425.47;5020613;28;45487;-71
2021/12/09 07:08:13;;;;;;;;;2.50;1.25;;;;;6.43;65.74;100425.38;5020671;28;45249;-72
2021/12/09 07:10:39;;;;;;;;;2.25;2.00;;;;;6.46;65.95;100423.53;5020538;28;45400;-69
2021/12/09 07:13:05;;;;;;;;;1.75;1.75;;;;;6.47;66.41;100420.00;5020876;28;45229;-72
2021/12/09 07:15:32;;;;;;;;;3.00;2.75;;;;;6.46;66.39;100416.53;5025048;28;45804;-71
2021/12/09 07:17:58;;;;;;;;;4.75;2.25;;;;;6.42;65.82;100417.59;5000822;28;45451;-72
2021/12/09 07:20:23;;;;;;;;;3.00;1.50;;;;;6.38;66.19;100410.81;5000139;28;45452;-72
2021/12/09 07:22:50;;;;;;;;;3.00;3.00;;;;;6.37;66.47;100416.97;4998536;28;45415;-71
2021/12/09 07:25:17;;;;;;;;;7.75;3.25;;;;;6.37;65.73;100420.44;5000366;28;45392;-71
2021/12/09 07:27:43;;;;;;;;;6.00;2.00;;;;;6.36;66.34;100421.34;5000868;28;45284;-72
2021/12/09 07:30:11;;;;;;;;;2.50;2.00;;;;;6.36;65.90;100425.75;5000735;28;46003;-71
2021/12/09 07:32:37;;;;;;;;;5.00;2.25;;;;;6.35;65.97;100416.19;5000472;28;45408;-72
2021/12/09 07:35:05;;;;;;;;;5.50;3.00;;;;;6.34;66.52;100411.88;5000651;28;45482;-71
2021/12/09 07:37:30;;;;;;;;;6.25;3.00;;;;;6.31;66.31;100418.09;5019066;28;45417;-72
2021/12/09 07:39:56;;;;;;;;;7.00;2.50;;;;;6.28;65.86;100412.16;5020205;28;45579;-71
2021/12/09 07:42:22;;;;;;;;;3.75;3.00;;;;;6.26;66.02;100414.03;5020466;28;45356;-72
2021/12/09 07:44:47;;;;;;;;;3.25;2.75;;;;;6.28;66.21;100415.63;5019335;28;45305;-72
2021/12/09 07:47:13;;;;;;;;;6.00;3.00;;;;;6.29;65.93;100411.25;5020026;28;45162;-72
2021/12/09 07:49:38;;;;;;;;;3.50;2.75;;;;;6.32;66.33;100416.31;5020030;28;45277;-72
2021/12/09 07:52:04;;;;;;;;;7.25;3.25;;;;;6.33;66.66;100416.28;5020238;28;45218;-72
2021/12/09 07:54:31;;;;;;;;;8.00;5.00;;;;;6.33;66.04;100415.44;5020400;28;45286;-72
2021/12/09 07:56:56;;;;;;;;;9.00;6.00;;;;;6.34;66.54;100423.19;5020295;28;46308;-72
2021/12/09 07:59:22;;;;;;;;;6.75;3.00;;;;;6.33;65.99;100415.44;5020327;28;45296;-72
2021/12/09 08:01:48;;;;;;;;;5.50;3.00;;;;;6.34;66.19;100427.59;5020075;28;45320;-72
2021/12/09 08:04:14;;;;;;;;;4.00;4.00;;;;;6.32;65.87;100417.19;5020507;28;45247;-72
2021/12/09 08:06:40;;;;;;;;;4.25;3.00;;;;;6.35;66.63;100427.50;5020277;28;45291;-71
2021/12/09 08:09:08;;;;;;;;;6.00;3.25;;;;;6.37;65.98;100433.50;5020152;28;45323;-71
2021/12/09 08:11:36;;;;;;;;;2.75;2.00;;;;;6.39;66.13;100423.81;5020129;28;45300;-71
2021/12/09 08:14:03;;;;;;;;;5.25;2.50;;;;;6.40;65.93;100430.78;5019929;28;45454;-72
2021/12/09 08:16:30;;;;;;;;;6.50;3.00;;;;;6.41;65.80;100429.00;5020385;28;45533;-71
2021/12/09 08:18:56;;;;;;;;;10.00;8.00;;;;;6.42;65.59;100433.31;5019923;28;45262;-71
2021/12/09 08:21:26;;;;;;;;;7.00;3.00;;;;;6.44;65.47;100429.69;5020157;28;45266;-71
2021/12/09 08:23:53;;;;;;;;;5.75;3.00;;;;;6.46;65.98;100431.38;5020134;28;45266;-71
2021/12/09 08:26:21;;;;;;;;;4.75;2.00;;;;;6.48;65.88;100419.06;5020237;28;45307;-71
2021/12/09 08:28:47;;;;;;;;;8.50;5.00;;;;;6.54;65.99;100418.78;5020077;28;45229;-71
2021/12/09 08:31:13;;;;;;;;;4.50;4.50;;;;;6.58;65.67;100415.13;5019893;28;45256;-71
2021/12/09 08:33:38;;;;;;;;;7.75;5.00;;;;;6.63;65.39;100418.34;5019753;28;45236;-73
2021/12/09 08:36:04;;;;;;;;;7.00;5.50;;;;;6.67;65.66;100427.75;5019838;28;45373;-70
2021/12/09 08:38:30;;;;;;;;;5.75;3.00;;;;;6.67;65.08;100422.53;5022659;28;46204;-70
2021/12/09 08:40:55;;;;;;;;;2.00;2.00;;;;;6.70;65.67;100427.59;5023278;28;45234;-70
2021/12/09 08:43:22;;;;;;;;;3.00;2.50;;;;;6.71;64.81;100434.53;5023252;28;45257;-70
2021/12/09 08:45:49;;;;;;;;;5.75;3.00;;;;;6.69;64.73;100442.44;5023334;28;45420;-70
2021/12/09 08:48:16;;;;;;;;;9.50;4.00;;;;;6.67;65.05;100431.22;5022517;28;45418;-70
2021/12/09 08:50:44;;;;;;;;;5.75;5.75;;;;;6.68;65.08;100442.53;5023369;28;45247;-70
2021/12/09 08:53:15;;;;;;;;;8.75;3.00;;;;;6.70;64.97;100452.00;5022931;28;45337;-70
2021/12/09 08:55:42;;;;;;;;;5.50;3.00;;;;;6.71;65.41;100455.47;5022932;28;45513;-70
2021/12/09 08:58:09;;;;;;;;;3.00;2.00;;;;;6.73;65.31;100464.09;5022578;28;46111;-70
2021/12/09 09:00:36;;;;;;;;;6.50;3.00;;;;;6.77;64.64;100465.66;5023096;28;45295;-69
2021/12/09 09:03:03;;;;;;;;;9.25;4.00;;;;;6.82;65.20;100463.66;5022757;28;45422;-69
2021/12/09 09:05:32;;;;;;;;;4.50;3.00;;;;;6.86;65.00;100469.59;5022987;28;45414;-70
2021/12/09 09:07:58;;;;;;;;;6.00;6.00;;;;;6.89;65.19;100478.16;5022725;28;45390;-70
2021/12/09 09:10:27;;;;;;;;;8.00;3.00;;;;;6.94;64.98;100475.28;5022847;28;45255;-70
2021/12/09 09:12:53;;;;;;;;;11.00;6.00;;;;;7.07;65.07;100484.25;5022928;28;45316;-70
2021/12/09 09:15:22;;;;;;;;;8.25;5.75;;;;;7.18;64.94;100478.50;5022835;28;45233;-70
2021/12/09 09:17:48;;;;;;;;;8.00;4.00;;;;;7.27;64.62;100489.38;5022475;28;45608;-70
2021/12/09 09:20:16;;;;;;;;;5.00;3.00;;;;;7.39;64.52;100487.91;5022701;28;45228;-69
2021/12/09 09:22:42;;;;;;;;;5.00;3.00;;;;;7.45;64.01;100492.84;5022509;28;45485;-70
2021/12/09 09:25:14;;;;;;;;;6.00;3.00;;;;;7.50;64.39;100488.25;5022675;28;45258;-69
2021/12/09 09:27:40;;;;;;;;;7.50;3.50;;;;;7.47;63.95;100483.13;5022261;28;45519;-69
2021/12/09 09:30:06;;;;;;;;;7.00;3.00;;;;;7.45;64.08;100489.38;5022493;28;45572;-69
2021/12/09 09:32:33;;;;;;;;;3.00;2.25;;;;;7.38;63.86;100488.84;5022251;28;45443;-69
2021/12/09 09:34:59;;;;;;;;;3.00;2.25;;;;;7.36;64.24;100497.72;5022309;28;45475;-69
2021/12/09 09:37:25;;;;;;;;;1.25;1.00;;;;;7.33;63.90;100493.44;5022273;28;45481;-69
2021/12/09 09:39:50;;;;;;;;;2.75;2.75;;;;;7.29;64.10;100497.16;5022380;28;45269;-69
2021/12/09 09:42:33;;;;;;;;;3.25;2.25;;;;;7.26;64.11;100506.00;5022446;28;45474;-70
2021/12/09 09:44:59;;;;;;;;;9.25;2.00;;;;;7.28;63.94;100509.41;5022252;28;45435;-69
2021/12/09 09:47:27;;;;;;;;;5.00;3.00;;;;;7.28;63.91;100506.78;5022117;28;46185;-69
2021/12/09 09:49:54;;;;;;;;;6.25;5.50;;;;;7.27;63.74;100520.81;5022026;28;45498;-69
2021/12/09 09:52:20;;;;;;;;;5.00;3.50;;;;;7.27;63.88;100517.34;5022506;28;45233;-69
2021/12/09 09:54:46;;;;;;;;;46.00;37.50;;;;;7.32;64.11;100520.59;5022090;28;45444;-69
2021/12/09 09:57:12;;;;;;;;;6.00;6.00;;;;;7.38;64.00;100519.44;5021908;28;45308;-69
2021/12/09 09:59:40;;;;;;;;;9.00;6.00;;;;;7.41;63.93;100511.41;5022108;28;45368;-69
2021/12/09 10:02:08;;;;;;;;;6.50;6.00;;;;;7.39;63.88;100511.50;5022010;28;45343;-68
2021/12/09 10:07:04;;;;;;;;;10.25;7.25;;;;;7.48;64.27;100518.06;5021960;28;46000;-68
2021/12/09 10:09:31;;;;;;;;;6.00;3.50;;;;;7.51;63.98;100516.13;5021584;28;45325;-68
2021/12/09 10:11:59;;;;;;;;;8.75;4.50;;;;;7.49;63.86;100506.63;5022162;28;45273;-68
2021/12/09 10:14:27;;;;;;;;;6.00;5.25;;;;;7.45;63.88;100507.72;5021783;28;45244;-68
2021/12/09 10:17:13;;;;;;;;;3.00;3.00;;;;;7.46;64.14;100499.78;5021338;28;46052;-69
2021/12/09 10:19:49;;;;;;;;;7.00;2.75;;;;;7.50;64.08;100500.47;5021548;28;45396;-68
2021/12/09 10:22:20;;;;;;;;;3.50;3.00;;;;;7.53;64.07;100501.19;5021631;28;45402;-68
2021/12/09 10:24:48;;;;;;;;;3.00;3.00;;;;;7.60;64.16;100487.78;5021777;28;45701;-68
2021/12/09 10:27:28;;;;;;;;;6.25;2.50;;;;;7.64;63.97;100490.13;5021440;28;47481;-68
2021/12/09 10:30:02;;;;;;;;;3.75;2.25;;;;;7.68;63.81;100486.44;5021726;28;45429;-68
2021/12/09 10:32:32;;;;;;;;;7.25;3.00;;;;;7.74;64.01;100482.63;5021614;28;45248;-68
2021/12/09 10:35:09;;;;;;;;;7.25;3.00;;;;;7.80;63.69;100477.94;5021335;28;45493;-68
2021/12/09 10:37:37;;;;;;;;;6.00;2.75;;;;;7.83;63.45;100475.16;5021175;28;45361;-68
2021/12/09 10:40:14;;;;;;;;;10.00;3.00;;;;;7.87;63.66;100475.00;5021188;28;45501;-69
2021/12/09 10:42:49;;;;;;;;;5.25;2.00;;;;;7.88;63.49;100472.28;5021723;28;45309;-68
2021/12/09 10:45:20;;;;;;;;;6.25;2.00;;;;;7.90;63.44;100462.59;5021438;28;45371;-68
2021/12/09 10:47:54;;;;;;;;;7.00;3.00;;;;;7.94;63.62;100466.72;5021098;28;46339;-69
2021/12/09 10:56:10;;;;;;;;;2.50;2.25;;;;;8.07;63.12;100454.66;5021189;28;45352;-67
2021/12/09 10:58:39;;;;;;;;;4.50;2.50;;;;;8.12;63.13;100457.88;5021135;28;45399;-67
2021/12/09 11:01:17;;;;;;;;;2.75;1.25;;;;;8.13;62.98;100454.31;5020236;28;45173;-67
2021/12/09 11:04:08;;;;;;;;;3.50;2.00;;;;;8.11;62.82;100452.72;5021006;28;45371;-67
2021/12/09 11:06:37;;;;;;;;;4.75;4.50;;;;;8.08;63.04;100452.88;5021316;28;45205;-67
2021/12/09 11:09:08;;;;;;;;;5.50;2.25;;;;;8.09;63.23;100446.72;5020936;28;45432;-67
2021/12/09 11:11:45;;;;;;;;;6.50;2.00;;;;;8.09;63.02;100442.31;5020800;28;45308;-67
2021/12/09 11:14:17;;;;;;;;;2.00;1.00;;;;;8.12;63.08;100446.53;5020924;28;45233;-67
2021/12/09 11:17:04;;;;;;;;;2.25;1.00;;;;;8.15;62.71;100443.75;5021152;28;45812;-67
2021/12/09 11:22:01;;;;;;;;;3.00;1.00;;;;;8.30;62.78;100444.72;5020874;28;45455;-67
2021/12/09 11:24:31;;;;;;;;;10.00;2.00;;;;;8.32;62.50;100433.19;5020787;28;45439;-67
2021/12/09 11:27:07;;;;;;;;;5.00;2.00;;;;;8.38;62.43;100437.31;5021026;28;45289;-67
2021/12/09 11:29:42;;;;;;;;;3.00;1.00;;;;;8.44;62.58;100431.69;5020896;28;45408;-66
2021/12/09 11:34:49;;;;;;;;;4.00;2.00;;;;;8.51;62.26;100424.31;5020975;28;45301;-66
2021/12/09 11:42:59;;;;;;;;;3.50;1.00;;;;;8.67;61.92;100428.63;5020612;28;45414;-67
2021/12/09 11:45:31;;;;;;;;;2.75;2.00;;;;;8.72;62.21;100427.53;5020648;28;45328;-67
2021/12/09 11:47:58;;;;;;;;;6.00;1.00;;;;;8.77;61.93;100426.34;5020405;28;45466;-67
2021/12/09 11:50:30;;;;;;;;;5.00;1.00;;;;;8.82;62.05;100419.03;5020088;28;45375;-67
2021/12/09 11:52:57;;;;;;;;;7.50;2.75;;;;;8.84;61.56;100419.78;5020657;28;45518;-68
2021/12/09 11:55:31;;;;;;;;;2.25;2.00;;;;;8.85;61.46;100418.03;5020495;28;45327;-66
2021/12/09 11:58:16;;;;;;;;;5.00;2.00;;;;;8.90;61.65;100419.44;5020690;28;45424;-66